Time;durP1;ratioP1;P1;durP2;ratioP2;P2;SDS_P1;SDS_P2;PMS_P1;PMS_P2;Temp;Humidity;BMP_temperature;BMP_pressure;BME280_temperature;BME280_humidity;BME280_pressure;Samples;Min_cycle;Max_cycle;Signal;HPM_P1;HPM_P2
2021/08/06 00:04:10;;;;;;;6.35;4.30;;;;;;;16.14;83.00;100544.53;10187225;28;20092;-68
2021/08/06 00:09:09;;;;;;;6.95;5.00;;;;;;;16.09;83.17;100540.09;10204859;28;20122;-69
2021/08/06 00:14:06;;;;;;;6.13;4.28;;;;;;;16.02;82.90;100550.97;10204263;28;20761;-68
2021/08/06 00:19:03;;;;;;;7.90;5.25;;;;;;;15.98;82.92;100544.56;10198791;28;20050;-69
2021/08/06 00:23:59;;;;;;;7.95;4.78;;;;;;;15.95;82.96;100534.25;10188938;28;20092;-68
2021/08/06 00:28:56;;;;;;;7.80;4.70;;;;;;;15.92;83.20;100534.97;10183632;28;20172;-70
2021/08/06 00:33:52;;;;;;;7.88;4.50;;;;;;;15.87;83.48;100535.25;10202968;28;20034;-69
2021/08/06 00:38:49;;;;;;;12.23;6.85;;;;;;;15.86;83.21;100537.22;10194738;28;20716;-68
2021/08/06 00:43:45;;;;;;;7.35;4.85;;;;;;;15.83;83.87;100531.59;10204208;28;20072;-69
2021/08/06 00:48:46;;;;;;;8.38;5.32;;;;;;;15.76;84.03;100533.03;10204323;28;20107;-70
2021/08/06 00:53:43;;;;;;;8.85;5.32;;;;;;;15.75;84.53;100527.88;10204841;28;20077;-67
2021/08/06 00:58:40;;;;;;;9.13;5.65;;;;;;;15.67;85.17;100524.13;10208868;28;20050;-69
2021/08/06 01:03:58;;;;;;;7.45;5.70;;;;;;;15.65;85.04;100523.69;10188665;28;20460;-69
2021/08/06 01:09:02;;;;;;;7.00;5.47;;;;;;;15.65;85.74;100523.69;10200832;28;20056;-68
2021/08/06 01:13:59;;;;;;;8.13;6.07;;;;;;;15.59;85.49;100511.31;10198451;28;20046;-68
2021/08/06 01:19:20;;;;;;;9.38;7.28;;;;;;;15.58;85.75;100516.03;10189649;28;20089;-69
2021/08/06 01:24:23;;;;;;;8.60;5.57;;;;;;;15.55;85.81;100510.47;10202796;28;20042;-69
2021/08/06 01:29:19;;;;;;;12.80;6.47;;;;;;;15.54;86.04;100514.34;10196482;28;20575;-69
2021/08/06 01:34:16;;;;;;;10.95;6.72;;;;;;;15.49;86.71;100509.13;10212421;28;20145;-69
2021/08/06 01:39:12;;;;;;;9.82;6.75;;;;;;;15.47;86.13;100505.91;10196210;28;20125;-69
2021/08/06 01:44:32;;;;;;;9.63;6.80;;;;;;;15.45;86.52;100516.50;10201802;28;20045;-68
2021/08/06 01:49:39;;;;;;;32.55;11.30;;;;;;;15.45;86.87;100517.28;10182437;28;20088;-68
2021/08/06 01:54:37;;;;;;;7.18;5.63;;;;;;;15.45;86.63;100517.28;10196404;28;20042;-67
2021/08/06 01:59:35;;;;;;;9.68;8.50;;;;;;;15.44;86.83;100528.69;10190667;28;20049;-68
2021/08/06 02:04:32;;;;;;;12.80;6.25;;;;;;;15.45;86.57;100527.50;10197987;28;20172;-68
2021/08/06 02:09:29;;;;;;;32.03;11.45;;;;;;;15.44;86.65;100525.91;10206956;28;20446;-69
2021/08/06 02:14:26;;;;;;;8.73;6.45;;;;;;;15.40;86.62;100519.50;10192655;28;20099;-68
2021/08/06 02:19:24;;;;;;;8.77;6.32;;;;;;;15.41;86.82;100512.84;10202450;28;20128;-68
2021/08/06 02:24:22;;;;;;;9.98;6.82;;;;;;;15.40;86.68;100508.50;10211429;28;20073;-68
2021/08/06 02:29:20;;;;;;;10.80;8.27;;;;;;;15.44;86.83;100514.91;10202467;28;20815;-68
2021/08/06 02:34:18;;;;;;;10.15;6.90;;;;;;;15.45;87.18;100506.25;10200818;28;20140;-68
2021/08/06 02:39:17;;;;;;;14.32;9.18;;;;;;;15.43;87.31;100502.25;10195504;28;20456;-68
2021/08/06 02:44:14;;;;;;;10.25;7.72;;;;;;;15.41;86.94;100510.91;10201468;28;20862;-68
2021/08/06 02:49:11;;;;;;;13.02;8.50;;;;;;;15.47;87.17;100509.47;10200234;28;20049;-67
2021/08/06 02:54:07;;;;;;;13.30;7.97;;;;;;;15.47;87.68;100509.47;10199494;28;20042;-67
2021/08/06 02:59:04;;;;;;;10.73;6.70;;;;;;;15.55;87.90;100504.94;10203888;28;20105;-68
2021/08/06 03:04:00;;;;;;;11.02;7.28;;;;;;;15.57;87.85;100497.09;10201299;28;20905;-68
2021/08/06 03:08:57;;;;;;;12.30;8.40;;;;;;;15.54;88.03;100497.81;10207664;28;20046;-68
2021/08/06 03:13:53;;;;;;;10.45;8.00;;;;;;;15.52;87.68;100486.34;10199094;28;20065;-68
2021/08/06 03:18:50;;;;;;;10.73;7.85;;;;;;;15.45;87.55;100491.69;10192287;28;20096;-68
2021/08/06 03:23:46;;;;;;;11.40;7.45;;;;;;;15.44;87.51;100492.88;10211345;28;20042;-67
2021/08/06 03:28:43;;;;;;;11.20;8.35;;;;;;;15.43;87.56;100474.72;10202358;28;20103;-68
2021/08/06 03:33:39;;;;;;;12.18;7.10;;;;;;;15.43;87.63;100474.72;10196700;28;20037;-68
2021/08/06 03:38:36;;;;;;;10.88;7.47;;;;;;;15.44;87.74;100476.34;10191250;28;20085;-68
2021/08/06 03:43:32;;;;;;;11.10;7.55;;;;;;;15.44;87.87;100471.63;10189597;28;20050;-68
2021/08/06 03:48:29;;;;;;;18.63;10.52;;;;;;;15.36;87.94;100475.34;10193115;28;20080;-68
2021/08/06 03:53:25;;;;;;;8.70;7.80;;;;;;;15.38;87.77;100469.47;10199472;28;20054;-67
2021/08/06 03:58:21;;;;;;;12.40;8.60;;;;;;;15.32;87.50;100464.25;10190923;28;20129;-68
2021/08/06 04:03:18;;;;;;;11.80;7.50;;;;;;;15.29;87.43;100459.47;10193130;28;20514;-67
2021/08/06 04:08:14;;;;;;;12.95;8.93;;;;;;;15.25;87.63;100458.56;10203554;28;20049;-68
2021/08/06 04:13:11;;;;;;;11.60;7.70;;;;;;;15.23;87.56;100460.88;10207553;28;20069;-68
2021/08/06 04:18:07;;;;;;;11.18;7.60;;;;;;;15.24;87.72;100456.94;10193843;28;20061;-67
2021/08/06 04:23:04;;;;;;;16.40;9.20;;;;;;;15.18;88.16;100446.56;10194474;28;20072;-67
2021/08/06 04:28:00;;;;;;;13.63;8.73;;;;;;;15.22;88.29;100451.00;10194724;28;20046;-67
2021/08/06 04:32:57;;;;;;;11.25;9.35;;;;;;;15.20;88.29;100450.56;10189184;28;20463;-68
2021/08/06 04:37:54;;;;;;;12.73;11.30;;;;;;;15.21;88.30;100446.66;10199133;28;20548;-67
2021/08/06 04:42:50;;;;;;;13.05;10.57;;;;;;;15.21;88.72;100435.63;10198816;28;20100;-67
2021/08/06 04:47:51;;;;;;;18.27;12.07;;;;;;;15.12;88.71;100433.06;10193527;28;20041;-67
2021/08/06 04:52:47;;;;;;;19.23;11.80;;;;;;;15.21;88.64;100435.63;10187831;28;20081;-68
2021/08/06 04:57:45;;;;;;;13.98;10.75;;;;;;;15.30;88.90;100433.50;10204462;28;20068;-67
2021/08/06 05:02:42;;;;;;;14.68;12.73;;;;;;;15.35;88.71;100424.97;10195332;28;20041;-67
2021/08/06 05:07:39;;;;;;;14.70;11.98;;;;;;;15.49;88.64;100426.47;10211314;28;20441;-68
2021/08/06 05:12:36;;;;;;;33.58;18.05;;;;;;;15.49;88.28;100418.19;10203412;28;20046;-67
2021/08/06 05:17:32;;;;;;;13.77;12.27;;;;;;;15.60;87.80;100419.25;10199303;28;20663;-67
2021/08/06 05:22:28;;;;;;;18.90;14.00;;;;;;;15.64;88.02;100430.34;10206035;28;20140;-67
2021/08/06 05:27:25;;;;;;;17.48;13.95;;;;;;;15.58;87.62;100416.03;10211425;28;20435;-65
2021/08/06 05:32:23;;;;;;;13.40;11.20;;;;;;;15.62;87.51;100419.69;10203694;28;20046;-67
2021/08/06 05:37:20;;;;;;;12.55;11.25;;;;;;;15.61;88.19;100420.03;10216817;28;20042;-68
2021/08/06 05:42:16;;;;;;;11.60;9.90;;;;;;;15.57;87.66;100403.41;10208181;28;20061;-67
2021/08/06 05:47:13;;;;;;;10.70;9.57;;;;;;;15.68;88.20;100398.94;10215295;28;20077;-67
2021/08/06 05:52:09;;;;;;;11.80;9.02;;;;;;;15.75;87.24;100403.84;10204399;28;20045;-67
2021/08/06 05:57:06;;;;;;;12.40;9.85;;;;;;;15.76;87.92;100395.22;10201270;28;20042;-67
2021/08/06 06:02:03;;;;;;;9.32;7.60;;;;;;;15.83;87.16;100399.28;10216177;28;20464;-68
2021/08/06 06:06:59;;;;;;;11.45;8.45;;;;;;;15.87;87.32;100398.19;10209940;28;20138;-66
2021/08/06 06:11:56;;;;;;;9.27;6.97;;;;;;;15.87;88.01;100400.94;10207044;28;20069;-65
2021/08/06 06:16:52;;;;;;;10.27;6.68;;;;;;;15.92;87.65;100397.94;10203429;28;20073;-67
2021/08/06 06:21:49;;;;;;;7.03;5.80;;;;;;;15.98;86.48;100395.66;10200538;28;20045;-67
2021/08/06 06:26:45;;;;;;;7.97;5.55;;;;;;;16.03;85.23;100403.66;10188150;28;20041;-67
2021/08/06 06:31:44;;;;;;;8.55;5.22;;;;;;;16.09;86.18;100395.91;10201790;28;20033;-67
2021/08/06 06:36:40;;;;;;;6.95;4.47;;;;;;;16.17;85.35;100397.63;10195201;28;20738;-66
2021/08/06 06:41:37;;;;;;;6.47;4.85;;;;;;;16.24;83.57;100402.50;10194185;28;20034;-64
2021/08/06 06:46:33;;;;;;;6.97;4.25;;;;;;;16.31;84.05;100397.91;10198234;28;20065;-68
2021/08/06 06:51:30;;;;;;;6.65;5.07;;;;;;;16.32;85.16;100387.69;10204820;28;20061;-67
2021/08/06 06:56:26;;;;;;;11.68;4.88;;;;;;;16.39;84.27;100393.34;10201161;28;20042;-68
2021/08/06 07:01:23;;;;;;;5.93;4.13;;;;;;;16.49;84.35;100392.72;10196444;28;20133;-66
2021/08/06 07:06:20;;;;;;;54.00;5.35;;;;;;;16.57;83.90;100386.19;10191449;28;20661;-68
2021/08/06 07:11:16;;;;;;;5.25;3.67;;;;;;;16.69;81.87;100384.44;10202154;28;20045;-67
2021/08/06 07:16:13;;;;;;;5.63;4.50;;;;;;;16.75;83.93;100374.66;10189990;28;20046;-68
2021/08/06 07:21:11;;;;;;;5.13;3.50;;;;;;;16.87;83.43;100385.53;10199993;28;20073;-67
2021/08/06 07:26:07;;;;;;;6.53;3.80;;;;;;;16.97;81.63;100389.66;10197097;28;20041;-68
2021/08/06 07:31:04;;;;;;;4.40;3.47;;;;;;;17.09;81.44;100380.38;10202513;28;20088;-67
2021/08/06 07:36:00;;;;;;;5.32;3.45;;;;;;;17.19;82.23;100380.53;10205794;28;20070;-66
2021/08/06 07:40:57;;;;;;;8.80;3.90;;;;;;;17.26;81.55;100374.31;10198777;28;20099;-67
2021/08/06 07:45:53;;;;;;;4.85;2.53;;;;;;;17.44;79.56;100380.91;10198922;28;20068;-67
2021/08/06 07:50:50;;;;;;;5.90;2.88;;;;;;;17.58;77.81;100379.53;10207818;28;20065;-68
2021/08/06 07:55:46;;;;;;;4.07;2.50;;;;;;;17.69;75.44;100386.00;10200567;28;20068;-66
2021/08/06 08:00:43;;;;;;;4.55;3.15;;;;;;;17.80;74.75;100381.44;10203649;28;20091;-67
2021/08/06 08:05:39;;;;;;;4.85;2.70;;;;;;;17.92;75.75;100379.63;10208350;28;20041;-66
2021/08/06 08:10:36;;;;;;;4.10;2.70;;;;;;;18.05;75.47;100369.91;10206471;28;20049;-67
2021/08/06 08:15:40;;;;;;;4.38;2.53;;;;;;;18.19;74.89;100370.06;10205471;28;20518;-67
2021/08/06 08:20:37;;;;;;;5.85;2.63;;;;;;;18.29;73.09;100374.94;10195319;28;20561;-67
2021/08/06 08:25:33;;;;;;;5.05;2.70;;;;;;;18.43;72.69;100362.41;10190665;28;20060;-68
2021/08/06 08:30:30;;;;;;;3.85;2.42;;;;;;;18.55;72.81;100370.44;10197454;28;20125;-66
2021/08/06 08:35:31;;;;;;;4.03;2.50;;;;;;;18.70;71.74;100366.66;10194785;28;20042;-68
2021/08/06 08:40:29;;;;;;;5.50;2.58;;;;;;;18.78;69.72;100356.44;10196714;28;20683;-68
2021/08/06 08:45:25;;;;;;;3.58;2.22;;;;;;;18.92;69.51;100361.31;10198809;28;20041;-69
2021/08/06 08:50:22;;;;;;;3.95;2.15;;;;;;;19.08;69.70;100347.97;10201137;28;20128;-68
2021/08/06 08:55:18;;;;;;;4.20;2.40;;;;;;;19.24;68.26;100360.75;10202328;28;20076;-67
2021/08/06 09:00:15;;;;;;;3.80;2.22;;;;;;;19.42;66.45;100344.22;10191372;28;20060;-68
2021/08/06 09:05:15;;;;;;;3.75;2.35;;;;;;;19.60;68.29;100355.44;10195552;28;20492;-68
2021/08/06 09:10:19;;;;;;;3.53;2.13;;;;;;;19.78;67.89;100345.25;10204316;28;20050;-69
2021/08/06 09:15:17;;;;;;;3.65;2.15;;;;;;;19.94;67.21;100342.94;10192302;28;20052;-68
2021/08/06 09:20:16;;;;;;;3.58;1.80;;;;;;;20.08;66.91;100341.41;10187705;28;20053;-68
2021/08/06 09:25:15;;;;;;;3.67;2.10;;;;;;;20.21;66.11;100322.38;10176598;28;20104;-68
2021/08/06 09:30:31;;;;;;;4.10;2.00;;;;;;;20.34;64.74;100321.63;10200051;28;20530;-69
2021/08/06 09:35:31;;;;;;;4.53;1.98;;;;;;;20.56;62.90;100321.66;10192267;28;20077;-68
2021/08/06 09:40:30;;;;;;;3.20;1.90;;;;;;;20.73;61.57;100320.91;10196532;28;20116;-68
2021/08/06 09:45:34;;;;;;;3.10;1.95;;;;;;;20.97;58.82;100318.50;10204876;28;20630;-67
2021/08/06 09:50:40;;;;;;;3.28;1.73;;;;;;;21.14;58.46;100330.78;10202373;28;20049;-67
2021/08/06 09:55:39;;;;;;;3.50;1.92;;;;;;;21.35;56.63;100313.25;10198519;28;20092;-66
2021/08/06 10:00:44;;;;;;;3.78;1.90;;;;;;;21.76;58.13;100304.41;10204794;28;20129;-68
2021/08/06 10:05:40;;;;;;;3.33;1.77;;;;;;;21.95;57.09;100303.91;10206154;28;20139;-67
2021/08/06 10:10:37;;;;;;;5.10;2.00;;;;;;;22.66;55.62;100299.13;10205809;28;20535;-66
2021/08/06 10:15:33;;;;;;;5.55;2.90;;;;;;;23.78;55.55;100301.56;10205134;28;20052;-68
2021/08/06 10:20:31;;;;;;;5.80;1.80;;;;;;;24.59;50.25;100295.25;10200880;28;20537;-68
2021/08/06 10:25:30;;;;;;;2.85;1.65;;;;;;;25.87;51.55;100277.28;10206370;28;20045;-69
2021/08/06 10:30:29;;;;;;;4.00;1.90;;;;;;;26.61;46.29;100285.16;10198727;28;20049;-67
2021/08/06 10:35:40;;;;;;;6.78;2.03;;;;;;;26.90;42.56;100273.22;10206731;28;20073;-66
2021/08/06 10:40:40;;;;;;;3.50;1.73;;;;;;;27.56;41.52;100274.59;10203848;28;20459;-69
2021/08/06 10:45:45;;;;;;;3.35;2.13;;;;;;;28.49;41.62;100273.81;10202116;28;20077;-67
2021/08/06 10:50:41;;;;;;;3.78;2.05;;;;;;;28.60;38.56;100271.41;10208433;28;20057;-68
2021/08/06 10:55:38;;;;;;;3.35;2.03;;;;;;;29.24;42.40;100262.00;10209137;28;20046;-68
2021/08/06 11:00:36;;;;;;;7.82;3.80;;;;;;;28.07;39.85;100262.69;10209319;28;20116;-67
2021/08/06 11:05:36;;;;;;;5.00;1.77;;;;;;;27.76;39.27;100271.63;10207971;28;20034;-68
2021/08/06 11:10:53;;;;;;;5.80;1.70;;;;;;;28.30;41.21;100259.50;10201927;28;22203;-68
2021/08/06 11:16:11;;;;;;;3.40;2.05;;;;;;;27.26;42.32;100247.81;10196759;28;20500;-66
2021/08/06 11:21:08;;;;;;;3.72;2.13;;;;;;;27.24;42.01;100247.47;10193533;28;20471;-67
2021/08/06 11:26:06;;;;;;;4.50;1.98;;;;;;;26.98;42.08;100246.56;10202780;28;20045;-67
2021/08/06 11:31:14;;;;;;;4.38;2.17;;;;;;;27.12;42.55;100245.38;10200683;28;20049;-67
2021/08/06 11:36:17;;;;;;;4.07;2.20;;;;;;;27.30;41.67;100225.25;10197745;28;20157;-68
2021/08/06 11:41:14;;;;;;;4.70;2.70;;;;;;;27.69;39.61;100226.91;10191477;28;20410;-68
2021/08/06 11:46:13;;;;;;;5.13;2.65;;;;;;;28.23;40.93;100211.19;10205336;28;20084;-68
2021/08/06 11:51:10;;;;;;;3.75;2.63;;;;;;;28.23;40.92;100220.41;10201551;28;20061;-68
2021/08/06 11:56:17;;;;;;;3.80;2.88;;;;;;;27.83;40.93;100211.63;10197180;28;20077;-66
2021/08/06 12:01:21;;;;;;;7.70;3.17;;;;;;;27.06;42.20;100209.44;10193506;28;20050;-68
2021/08/06 12:06:20;;;;;;;8.23;4.68;;;;;;;26.73;43.57;100203.13;10180125;28;20076;-67
2021/08/06 12:11:19;;;;;;;3.60;2.50;;;;;;;26.18;43.79;100194.50;10197423;28;20080;-66
2021/08/06 12:16:20;;;;;;;4.63;3.20;;;;;;;25.66;45.23;100195.28;10192090;28;20050;-68
2021/08/06 12:21:19;;;;;;;5.97;3.70;;;;;;;25.32;46.15;100171.25;10192596;28;20062;-68
2021/08/06 12:26:22;;;;;;;6.10;3.20;;;;;;;25.36;46.83;100166.34;10196940;28;20042;-68
2021/08/06 12:31:26;;;;;;;4.95;3.25;;;;;;;25.26;47.35;100161.78;10195994;28;20428;-67
2021/08/06 12:36:23;;;;;;;5.15;3.40;;;;;;;25.18;45.87;100160.34;10202615;28;20088;-67
2021/08/06 12:41:28;;;;;;;6.10;2.72;;;;;;;24.99;45.87;100154.31;10192945;28;21672;-68
2021/08/06 12:46:24;;;;;;;8.05;3.33;;;;;;;24.64;46.86;100160.59;10207765;28;20100;-66
2021/08/06 12:51:21;;;;;;;5.03;3.00;;;;;;;24.22;47.43;100157.31;10194489;28;20076;-68
2021/08/06 12:56:17;;;;;;;5.18;3.13;;;;;;;23.84;48.25;100157.53;10198215;28;20152;-67
2021/08/06 13:01:26;;;;;;;5.97;3.00;;;;;;;23.73;49.62;100150.09;10193703;28;20108;-68
2021/08/06 13:06:23;;;;;;;4.82;3.22;;;;;;;23.79;49.37;100142.06;10195852;28;20077;-68
2021/08/06 13:11:19;;;;;;;5.70;3.17;;;;;;;23.98;49.41;100131.41;10204791;28;20586;-69
2021/08/06 13:16:19;;;;;;;5.03;3.15;;;;;;;24.86;48.74;100125.44;10192764;28;20085;-68
2021/08/06 13:21:17;;;;;;;4.75;3.10;;;;;;;25.29;46.54;100132.94;10197698;28;20129;-68
2021/08/06 13:26:14;;;;;;;4.70;2.80;;;;;;;25.02;47.30;100129.50;10200598;28;20115;-67
2021/08/06 13:31:11;;;;;;;8.20;3.13;;;;;;;24.57;47.02;100134.34;10207633;28;20042;-68
2021/08/06 13:36:07;;;;;;;7.70;3.35;;;;;;;24.22;48.73;100134.97;10205616;28;20092;-68
2021/08/06 13:41:04;;;;;;;5.80;3.15;;;;;;;23.88;49.72;100128.38;10199898;28;20053;-69
2021/08/06 13:46:01;;;;;;;7.13;3.90;;;;;;;23.59;53.53;100133.56;10194088;28;20053;-68
2021/08/06 13:50:57;;;;;;;11.45;6.30;;;;;;;22.89;60.26;100146.00;10200203;28;20053;-68
2021/08/06 13:56:01;;;;;;;8.80;5.93;;;;;;;22.27;63.97;100158.16;10216384;28;20057;-67
2021/08/06 14:00:59;;;;;;;13.30;8.73;;;;;;;21.87;68.25;100174.38;10198065;28;20216;-67
2021/08/06 14:05:56;;;;;;;14.88;10.43;;;;;;;21.41;72.79;100170.66;10204001;28;20557;-68
2021/08/06 14:10:52;;;;;;;15.45;9.95;;;;;;;21.08;74.05;100174.75;10207554;28;20053;-68
2021/08/06 14:15:48;;;;;;;78.32;14.27;;;;;;;20.51;83.83;100152.66;10210870;28;20100;-66
2021/08/06 14:20:45;;;;;;;19.75;13.23;;;;;;;19.72;87.54;100102.72;10194955;28;20045;-67
2021/08/06 14:25:41;;;;;;;29.17;21.83;;;;;;;19.31;92.85;100094.72;10209069;28;20073;-66
2021/08/06 14:30:38;;;;;;;19.30;17.00;;;;;;;19.11;95.82;100142.16;10204776;28;20115;-67
2021/08/06 14:35:35;;;;;;;20.45;16.00;;;;;;;18.90;93.64;100175.31;10201060;28;20070;-67
2021/08/06 14:40:32;;;;;;;18.77;12.30;;;;;;;18.89;92.30;100162.63;10197614;28;20042;-68
2021/08/06 14:45:28;;;;;;;68.10;20.45;;;;;;;19.01;92.97;100181.72;10203831;28;20073;-67
2021/08/06 14:50:25;;;;;;;10.43;8.43;;;;;;;18.84;88.90;100204.53;10208641;28;20081;-68
2021/08/06 14:55:22;;;;;;;13.30;10.13;;;;;;;18.74;90.23;100210.78;10198553;28;20046;-67
2021/08/06 15:00:18;;;;;;;23.27;8.35;;;;;;;18.63;87.78;100232.88;10195835;28;20071;-67
2021/08/06 15:05:15;;;;;;;41.75;6.95;;;;;;;18.29;87.97;100250.41;10192664;28;20054;-70
2021/08/06 15:10:12;;;;;;;7.18;5.57;;;;;;;18.36;87.47;100254.41;10201648;28;20180;-67
2021/08/06 15:15:21;;;;;;;8.00;6.20;;;;;;;18.21;87.17;100261.78;10195765;28;20050;-68
2021/08/06 15:20:18;;;;;;;9.95;5.55;;;;;;;18.26;87.08;100267.78;10197832;28;20108;-69
2021/08/06 15:25:15;;;;;;;7.68;5.90;;;;;;;18.30;87.85;100271.34;10206111;28;20081;-69
2021/08/06 15:30:12;;;;;;;9.18;6.00;;;;;;;18.33;88.60;100280.06;10198013;28;20489;-70
2021/08/06 15:35:08;;;;;;;10.77;7.63;;;;;;;18.42;90.13;100289.63;10207727;28;20131;-70
2021/08/06 15:40:07;;;;;;;8.48;6.65;;;;;;;18.46;89.22;100295.22;10204417;28;20080;-70
2021/08/06 15:45:04;;;;;;;10.40;7.30;;;;;;;18.53;89.59;100284.22;10202545;28;20054;-70
2021/08/06 15:50:00;;;;;;;8.48;6.97;;;;;;;18.62;89.47;100270.84;10174153;28;20081;-70
2021/08/06 15:54:57;;;;;;;8.30;5.55;;;;;;;18.68;89.22;100285.09;10187958;28;20072;-70
2021/08/06 15:59:54;;;;;;;10.77;6.25;;;;;;;18.70;89.05;100271.69;10204191;28;20073;-70
2021/08/06 16:04:50;;;;;;;9.35;6.72;;;;;;;18.71;88.96;100274.06;10195313;28;20046;-69
2021/08/06 16:09:47;;;;;;;10.95;7.47;;;;;;;18.75;89.85;100278.84;10209098;28;20145;-70
2021/08/06 16:14:43;;;;;;;14.48;10.00;;;;;;;18.81;90.66;100271.78;10207930;28;20080;-67
2021/08/06 16:19:40;;;;;;;62.10;14.43;;;;;;;18.81;91.50;100257.94;10197075;28;20096;-69
2021/08/06 16:24:36;;;;;;;13.73;11.35;;;;;;;19.05;91.25;100243.47;10202550;28;20500;-70
2021/08/06 16:29:33;;;;;;;12.20;10.60;;;;;;;19.64;92.52;100248.09;10195203;28;20073;-68
2021/08/06 16:34:30;;;;;;;9.48;7.70;;;;;;;20.48;89.63;100259.75;10186602;28;20045;-68
2021/08/06 16:39:26;;;;;;;10.60;7.30;;;;;;;20.17;87.89;100255.78;10188059;28;20045;-68
2021/08/06 16:44:23;;;;;;;10.27;8.35;;;;;;;20.09;88.33;100265.28;10199388;28;20042;-68
2021/08/06 16:49:20;;;;;;;8.50;6.20;;;;;;;19.92;88.66;100262.06;10197035;28;20174;-68
2021/08/06 16:54:17;;;;;;;8.23;5.75;;;;;;;19.69;88.48;100253.28;10195775;28;20046;-69
2021/08/06 16:59:13;;;;;;;8.25;4.80;;;;;;;19.53;88.39;100254.38;10200096;28;20041;-68
2021/08/06 17:04:10;;;;;;;7.63;5.25;;;;;;;19.45;88.53;100258.31;10194661;28;20042;-69
2021/08/06 17:09:06;;;;;;;10.63;5.63;;;;;;;19.39;88.39;100262.63;10194212;28;20096;-68
2021/08/06 17:14:04;;;;;;;5.88;4.38;;;;;;;19.37;88.03;100259.47;10201564;28;20143;-67
2021/08/06 17:19:02;;;;;;;6.78;4.95;;;;;;;19.36;87.49;100257.09;10192047;28;20053;-68
2021/08/06 17:23:58;;;;;;;7.38;4.70;;;;;;;19.37;86.97;100265.00;10206895;28;20080;-68
2021/08/06 17:28:54;;;;;;;8.73;5.38;;;;;;;19.41;87.24;100260.28;10200551;28;20050;-67
2021/08/06 17:33:51;;;;;;;9.02;5.45;;;;;;;19.37;87.39;100259.47;10190902;28;20037;-68
2021/08/06 17:38:51;;;;;;;8.88;4.97;;;;;;;19.34;87.60;100265.78;10189365;28;20070;-69
2021/08/06 17:43:47;;;;;;;10.43;5.18;;;;;;;19.31;88.26;100267.38;10200267;28;20095;-67
2021/08/06 17:48:44;;;;;;;8.75;4.45;;;;;;;19.29;87.51;100268.94;10194554;28;20065;-67
2021/08/06 17:53:40;;;;;;;5.20;3.70;;;;;;;19.24;87.17;100285.91;10202296;28;20167;-69
2021/08/06 17:58:38;;;;;;;6.78;3.90;;;;;;;19.18;87.22;100279.16;10192239;28;20050;-69
2021/08/06 18:03:37;;;;;;;6.20;3.95;;;;;;;19.13;87.07;100281.13;10192284;28;20054;-68
2021/08/06 18:08:33;;;;;;;6.72;4.75;;;;;;;19.07;87.29;100268.78;10212325;28;20453;-69
2021/08/06 18:13:30;;;;;;;6.78;4.80;;;;;;;19.00;87.76;100268.75;10205735;28;20076;-68
2021/08/06 18:18:27;;;;;;;9.02;4.40;;;;;;;18.91;88.43;100259.97;10193386;28;20054;-68
2021/08/06 18:23:24;;;;;;;7.18;4.60;;;;;;;18.84;87.58;100248.88;10207428;28;20042;-68
2021/08/06 18:28:24;;;;;;;6.32;4.70;;;;;;;18.80;88.19;100259.13;10213910;28;20042;-67
2021/08/06 18:33:22;;;;;;;10.13;6.05;;;;;;;18.77;88.45;100265.44;10205306;28;20112;-67
2021/08/06 18:38:19;;;;;;;8.13;5.35;;;;;;;18.75;88.57;100273.28;10203929;28;20037;-67
2021/08/06 18:43:16;;;;;;;8.82;6.18;;;;;;;18.73;89.14;100287.53;10188095;28;20050;-68
2021/08/06 18:48:14;;;;;;;7.65;5.72;;;;;;;18.66;89.67;100288.28;10203950;28;20042;-68
2021/08/06 18:53:10;;;;;;;9.15;6.75;;;;;;;18.66;89.75;100293.03;10211718;28;20124;-69
2021/08/06 18:58:07;;;;;;;8.55;6.03;;;;;;;18.65;90.22;100297.75;10204152;28;20111;-69
2021/08/06 19:03:05;;;;;;;8.13;7.00;;;;;;;18.63;90.64;100300.09;10205296;28;20562;-67
2021/08/06 19:08:06;;;;;;;7.20;6.00;;;;;;;18.60;90.16;100306.41;10202505;28;20050;-68
2021/08/06 19:13:07;;;;;;;9.27;6.03;;;;;;;18.55;90.55;100320.63;10212094;28;20495;-68
2021/08/06 19:18:05;;;;;;;9.65;5.50;;;;;;;18.52;90.17;100332.47;10196599;28;20054;-68
2021/08/06 19:23:01;;;;;;;12.05;6.40;;;;;;;18.51;89.88;100330.84;10197052;28;20132;-67
2021/08/06 19:27:58;;;;;;;9.70;6.97;;;;;;;18.47;90.55;100324.47;10203958;28;20123;-69
2021/08/06 19:32:54;;;;;;;10.98;7.03;;;;;;;18.39;91.02;100340.22;10207402;28;20065;-69
2021/08/06 19:37:51;;;;;;;10.52;7.18;;;;;;;18.33;90.72;100340.94;10194438;28;20420;-69
2021/08/06 19:42:48;;;;;;;13.55;8.07;;;;;;;18.28;91.20;100351.19;10195301;28;20037;-69
2021/08/06 19:47:45;;;;;;;8.23;5.03;;;;;;;18.17;86.05;100372.44;10201965;28;20041;-67
2021/08/06 19:52:42;;;;;;;4.13;2.08;;;;;;;17.93;83.13;100378.44;10186710;28;20046;-69
2021/08/06 19:57:40;;;;;;;44.03;8.30;;;;;;;17.67;80.79;100389.16;10195148;28;20562;-69
2021/08/06 20:02:36;;;;;;;4.15;1.40;;;;;;;17.61;79.29;100367.72;10204804;28;20042;-69
2021/08/06 20:07:33;;;;;;;8.02;1.95;;;;;;;17.57;83.03;100361.38;10200469;28;20045;-69
2021/08/06 20:12:29;;;;;;;4.50;1.95;;;;;;;17.43;84.65;100351.69;10196875;28;20045;-69
2021/08/06 20:17:26;;;;;;;3.30;1.90;;;;;;;17.42;84.58;100344.56;10198911;28;20046;-68
2021/08/06 20:22:22;;;;;;;6.03;2.30;;;;;;;17.37;85.90;100342.13;10194218;28;20515;-69
2021/08/06 20:27:19;;;;;;;4.88;1.80;;;;;;;17.26;86.18;100335.66;10202346;28;20077;-67
2021/08/06 20:32:15;;;;;;;7.05;2.58;;;;;;;17.16;86.33;100339.84;10209994;28;20504;-69
2021/08/06 20:37:12;;;;;;;3.80;2.05;;;;;;;17.04;86.53;100335.34;10198369;28;20049;-69
2021/08/06 20:42:08;;;;;;;5.15;2.17;;;;;;;16.95;86.42;100354.13;10196351;28;20053;-68
2021/08/06 20:47:05;;;;;;;6.47;2.13;;;;;;;16.87;86.16;100352.41;10197138;28;20049;-67
2021/08/06 20:52:02;;;;;;;4.35;2.75;;;;;;;16.82;86.04;100355.47;10181715;28;20077;-68
2021/08/06 20:56:58;;;;;;;4.80;2.53;;;;;;;16.79;86.67;100353.47;10189100;28;20107;-67
2021/08/06 21:01:55;;;;;;;4.65;2.90;;;;;;;16.76;86.52;100359.69;10188784;28;20103;-69
2021/08/06 21:06:52;;;;;;;5.75;3.10;;;;;;;16.75;86.66;100363.63;10181588;28;20045;-69
2021/08/06 21:11:48;;;;;;;6.80;3.40;;;;;;;16.75;87.10;100363.63;10202410;28;20073;-68
2021/08/06 21:16:45;;;;;;;9.13;3.90;;;;;;;16.75;87.36;100349.81;10199631;28;20099;-69
2021/08/06 21:21:41;;;;;;;6.00;3.45;;;;;;;16.75;88.22;100352.56;10195114;28;20065;-69
2021/08/06 21:26:38;;;;;;;10.63;4.18;;;;;;;16.72;88.11;100345.03;10197596;28;20050;-69
2021/08/06 21:31:35;;;;;;;7.38;4.05;;;;;;;16.68;88.17;100349.69;10188599;28;20070;-69
2021/08/06 21:36:31;;;;;;;6.15;4.15;;;;;;;16.62;88.76;100344.47;10198147;28;20049;-70
2021/08/06 21:41:28;;;;;;;8.55;4.35;;;;;;;16.58;88.54;100346.38;10197980;28;20096;-69
2021/08/06 21:46:24;;;;;;;7.57;4.18;;;;;;;16.52;88.12;100358.88;10196621;28;20058;-70
2021/08/06 21:51:21;;;;;;;7.45;5.30;;;;;;;16.47;88.52;100348.16;10194701;28;20057;-68
2021/08/06 21:56:20;;;;;;;12.18;4.43;;;;;;;16.47;88.72;100345.38;10210467;28;20100;-69
2021/08/06 22:01:16;;;;;;;6.78;4.78;;;;;;;16.44;88.55;100346.13;10195622;28;20057;-69
2021/08/06 22:06:13;;;;;;;6.97;4.72;;;;;;;16.40;88.49;100356.28;10198967;28;20042;-69
2021/08/06 22:11:10;;;;;;;8.43;6.22;;;;;;;16.40;88.63;100356.28;10202681;28;20504;-69
2021/08/06 22:16:07;;;;;;;8.98;5.80;;;;;;;16.38;88.54;100347.59;10181388;28;20077;-69
2021/08/06 22:21:03;;;;;;;9.50;6.78;;;;;;;16.34;88.80;100352.25;10200132;28;20479;-68
2021/08/06 22:25:59;;;;;;;12.38;6.45;;;;;;;16.33;89.26;100351.44;10198420;28;20092;-70
2021/08/06 22:30:56;;;;;;;10.85;7.45;;;;;;;16.32;89.43;100362.84;10210587;28;20077;-70
2021/08/06 22:35:52;;;;;;;11.00;6.70;;;;;;;16.32;89.54;100354.59;10192859;28;20073;-68
2021/08/06 22:40:49;;;;;;;10.63;7.13;;;;;;;16.36;89.75;100355.44;10184236;28;20077;-68
2021/08/06 22:45:46;;;;;;;9.02;7.40;;;;;;;16.41;90.39;100358.69;10195080;28;20141;-69